Time;durP1;ratioP1;P1;durP2;ratioP2;P2;SDS_P1;SDS_P2;PMS_P1;PMS_P2;Temp;Humidity;BMP_temperature;BMP_pressure;BME280_temperature;BME280_humidity;BME280_pressure;Samples;Min_cycle;Max_cycle;Signal;HPM_P1;HPM_P2
2023/03/31 00:00:32;;;;;;;2.73;1.10;;;11.60;99.90;;;;;;6139621;23;20132;-67
2023/03/31 00:02:58;;;;;;;3.93;1.47;;;11.60;99.90;;;;;;6103760;23;20499;-68
2023/03/31 00:05:25;;;;;;;4.63;1.57;;;11.60;99.90;;;;;;6139563;23;20371;-70
2023/03/31 00:07:59;;;;;;;3.57;1.30;;;11.40;99.90;;;;;;6139858;23;20140;-69
2023/03/31 00:10:27;;;;;;;4.30;1.20;;;11.40;99.90;;;;;;6139632;23;20426;-70
2023/03/31 00:12:53;;;;;;;3.77;1.30;;;11.20;99.90;;;;;;6140226;23;20478;-70
2023/03/31 00:15:19;;;;;;;6.40;1.50;;;11.20;99.90;;;;;;6140532;23;20415;-69
2023/03/31 00:17:46;;;;;;;2.50;0.90;;;11.10;99.90;;;;;;6139391;23;20145;-71
2023/03/31 00:20:12;;;;;;;2.93;1.30;;;11.00;99.90;;;;;;6140078;23;20803;-68
2023/03/31 00:22:40;;;;;;;4.33;1.90;;;10.90;99.90;;;;;;6104449;23;20507;-70
2023/03/31 00:25:08;;;;;;;10.17;1.57;;;10.90;99.90;;;;;;6136316;23;20851;-71
2023/03/31 00:27:34;;;;;;;4.03;1.50;;;10.80;99.90;;;;;;6139550;23;20419;-70
2023/03/31 00:29:59;;;;;;;4.23;1.40;;;10.80;99.90;;;;;;6114291;23;20395;-69
2023/03/31 00:32:25;;;;;;;4.47;1.40;;;10.80;99.90;;;;;;6103250;23;20546;-69
2023/03/31 00:34:51;;;;;;;3.93;1.30;;;10.80;99.90;;;;;;6104386;23;20187;-70
2023/03/31 00:37:17;;;;;;;9.00;1.43;;;10.80;99.90;;;;;;6084195;23;20380;-70
2023/03/31 00:39:43;;;;;;;3.80;1.30;;;10.70;99.90;;;;;;6105134;23;20443;-70
2023/03/31 00:42:11;;;;;;;10.43;2.07;;;10.70;99.90;;;;;;6140129;23;20399;-70
2023/03/31 00:45:12;;;;;;;6.27;1.63;;;10.70;99.90;;;;;;6104029;23;20184;-70
2023/03/31 00:47:43;;;;;;;3.10;1.13;;;10.60;99.90;;;;;;6103509;23;20690;-69
2023/03/31 00:50:19;;;;;;;2.60;1.20;;;10.50;99.90;;;;;;6139899;23;20406;-71
2023/03/31 00:52:54;;;;;;;3.00;1.10;;;10.50;99.90;;;;;;6139396;23;20453;-70
2023/03/31 00:55:24;;;;;;;4.60;1.00;;;10.40;99.90;;;;;;6135102;23;20461;-69
2023/03/31 00:57:52;;;;;;;2.97;1.53;;;10.40;99.90;;;;;;6139208;23;20638;-67
2023/03/31 01:00:18;;;;;;;3.00;1.03;;;10.40;99.90;;;;;;6139664;23;20471;-70
2023/03/31 01:02:56;;;;;;;3.50;1.10;;;10.30;99.90;;;;;;6138859;23;20455;-69
2023/03/31 01:05:26;;;;;;;2.03;1.17;;;10.30;99.90;;;;;;6138968;23;20384;-70
2023/03/31 01:07:54;;;;;;;2.07;0.93;;;10.20;99.90;;;;;;6103847;23;20524;-70
2023/03/31 01:10:21;;;;;;;7.00;1.27;;;10.20;99.90;;;;;;6138782;23;20382;-68
2023/03/31 01:12:51;;;;;;;3.13;0.90;;;10.10;99.90;;;;;;6140274;23;20709;-70
2023/03/31 01:15:18;;;;;;;3.47;0.97;;;10.10;99.90;;;;;;6108981;23;20685;-70
2023/03/31 01:17:46;;;;;;;6.20;1.27;;;10.10;99.90;;;;;;6105014;23;20395;-70
2023/03/31 01:20:49;;;;;;;4.13;1.50;;;10.00;99.90;;;;;;6139463;23;20383;-68
2023/03/31 01:23:33;;;;;;;12.37;1.63;;;10.00;99.90;;;;;;6139088;23;20477;-69
2023/03/31 01:26:30;;;;;;;2.90;0.90;;;10.10;99.90;;;;;;6132591;23;20518;-69
2023/03/31 01:29:17;;;;;;;5.60;1.10;;;10.10;99.90;;;;;;6104354;23;20423;-68
2023/03/31 01:32:10;;;;;;;3.00;1.60;;;10.10;99.90;;;;;;6139783;23;20478;-71
2023/03/31 01:34:39;;;;;;;1.63;1.10;;;10.10;99.90;;;;;;6138372;23;20437;-72
2023/03/31 01:37:18;;;;;;;3.33;1.10;;;10.00;99.90;;;;;;6139292;23;20364;-68
2023/03/31 01:39:57;;;;;;;2.63;1.20;;;10.10;99.90;;;;;;6139312;23;20634;-70
2023/03/31 01:42:37;;;;;;;5.13;1.27;;;10.10;99.90;;;;;;6138972;23;20434;-68
2023/03/31 01:45:35;;;;;;;2.43;0.90;;;10.10;99.90;;;;;;6102974;23;20431;-69
2023/03/31 01:48:08;;;;;;;2.90;1.20;;;10.10;99.90;;;;;;6138824;23;20371;-69
2023/03/31 01:50:42;;;;;;;6.70;1.30;;;10.20;99.90;;;;;;6139438;23;20443;-71
2023/03/31 01:53:27;;;;;;;4.97;1.20;;;10.20;99.90;;;;;;6141380;23;20395;-70
2023/03/31 01:56:07;;;;;;;6.43;1.80;;;10.20;99.90;;;;;;6134210;23;20801;-68
2023/03/31 01:58:39;;;;;;;4.70;1.50;;;10.30;99.90;;;;;;6103346;23;20504;-70
2023/03/31 02:01:15;;;;;;;3.63;1.40;;;10.30;99.90;;;;;;6103443;23;20408;-68
2023/03/31 02:03:50;;;;;;;7.13;2.00;;;10.30;99.90;;;;;;6138472;23;20410;-70
2023/03/31 02:06:20;;;;;;;3.57;1.63;;;10.40;99.90;;;;;;6139976;23;20375;-70
2023/03/31 02:08:59;;;;;;;7.83;1.60;;;10.40;99.90;;;;;;6138932;23;20808;-69
2023/03/31 02:11:27;;;;;;;10.80;3.07;;;10.40;99.90;;;;;;6103542;23;20417;-70
2023/03/31 02:13:56;;;;;;;6.67;2.50;;;10.40;99.90;;;;;;6102658;23;20383;-70
2023/03/31 02:16:26;;;;;;;6.57;2.27;;;10.40;99.90;;;;;;6138765;23;20371;-68
2023/03/31 02:19:01;;;;;;;6.97;2.27;;;10.40;99.90;;;;;;6102371;23;20391;-69
2023/03/31 02:21:31;;;;;;;7.53;3.10;;;10.40;99.90;;;;;;6138416;23;20429;-70
2023/03/31 02:24:03;;;;;;;4.63;1.63;;;10.40;99.90;;;;;;6102919;23;20695;-70
2023/03/31 02:26:35;;;;;;;4.13;2.03;;;10.40;99.90;;;;;;6102692;23;20403;-69
2023/03/31 02:29:01;;;;;;;11.83;2.40;;;10.40;99.90;;;;;;6103490;23;20396;-69
2023/03/31 02:31:32;;;;;;;9.07;2.53;;;10.40;99.90;;;;;;6104076;23;20698;-70
2023/03/31 02:33:58;;;;;;;4.80;1.17;;;10.30;99.90;;;;;;6137479;23;20426;-69
2023/03/31 02:36:24;;;;;;;7.07;2.80;;;10.30;99.90;;;;;;6138732;23;20376;-69
2023/03/31 02:39:02;;;;;;;5.40;2.03;;;10.30;99.90;;;;;;6103588;23;20294;-69
2023/03/31 02:41:28;;;;;;;8.10;1.77;;;10.30;99.90;;;;;;6138690;23;20395;-70
2023/03/31 02:43:55;;;;;;;5.17;2.03;;;10.20;99.90;;;;;;6103238;23;20865;-72
2023/03/31 02:46:22;;;;;;;4.47;1.50;;;10.20;99.90;;;;;;6103230;23;20384;-70
2023/03/31 02:48:52;;;;;;;7.10;1.97;;;10.30;99.90;;;;;;6138309;23;20434;-69
2023/03/31 02:51:55;;;;;;;5.60;1.73;;;10.20;99.90;;;;;;6138243;23;20530;-72
2023/03/31 02:54:23;;;;;;;4.50;1.67;;;10.20;99.90;;;;;;6078178;23;20422;-70
2023/03/31 02:57:02;;;;;;;6.50;1.90;;;10.20;99.90;;;;;;6103941;23;20772;-70
2023/03/31 02:59:43;;;;;;;6.87;2.53;;;10.20;99.90;;;;;;6103382;23;20388;-69
2023/03/31 03:02:37;;;;;;;9.00;1.97;;;10.20;99.90;;;;;;6103434;23;20418;-70
2023/03/31 03:05:19;;;;;;;6.20;2.93;;;10.10;99.90;;;;;;6101703;23;20387;-69
2023/03/31 03:08:07;;;;;;;5.73;2.50;;;10.10;99.90;;;;;;6102724;23;20392;-69
2023/03/31 03:11:03;;;;;;;6.37;3.10;;;10.00;99.90;;;;;;6138289;23;20388;-71
2023/03/31 03:13:50;;;;;;;4.63;2.10;;;10.00;99.90;;;;;;6102495;23;20397;-70
2023/03/31 03:16:26;;;;;;;3.10;1.50;;;10.00;99.90;;;;;;6137922;23;20379;-69
2023/03/31 03:19:00;;;;;;;6.43;2.33;;;10.00;99.90;;;;;;6137985;23;20359;-71
2023/03/31 03:21:26;;;;;;;5.93;1.90;;;10.10;99.90;;;;;;6137873;23;20398;-69
2023/03/31 03:23:53;;;;;;;3.93;1.63;;;10.00;99.90;;;;;;6137374;23;20793;-69
2023/03/31 03:26:22;;;;;;;9.60;2.17;;;10.00;99.90;;;;;;6129755;23;20391;-68
2023/03/31 03:28:48;;;;;;;5.77;2.03;;;10.00;99.90;;;;;;6137676;23;20416;-70
2023/03/31 03:31:14;;;;;;;3.03;1.50;;;10.00;99.90;;;;;;6137256;23;20409;-69
2023/03/31 03:33:40;;;;;;;8.23;1.70;;;10.00;99.90;;;;;;6137047;23;20367;-70
2023/03/31 03:36:06;;;;;;;7.30;1.70;;;10.00;99.90;;;;;;6111581;23;20488;-70
2023/03/31 03:38:32;;;;;;;4.00;1.57;;;10.00;99.90;;;;;;6112578;23;20811;-68
2023/03/31 03:40:57;;;;;;;8.10;2.23;;;10.00;99.90;;;;;;6138594;23;20368;-68
2023/03/31 03:43:23;;;;;;;6.23;1.43;;;10.00;99.90;;;;;;6138093;23;20449;-69
2023/03/31 03:45:50;;;;;;;8.80;1.80;;;10.00;99.90;;;;;;6137976;23;20215;-71
2023/03/31 03:48:15;;;;;;;2.93;1.40;;;9.90;99.90;;;;;;6138757;23;20140;-69
2023/03/31 03:50:41;;;;;;;6.33;1.77;;;10.00;99.90;;;;;;6139786;23;20787;-67
2023/03/31 03:53:07;;;;;;;5.30;1.57;;;9.90;99.90;;;;;;6104517;23;20260;-68
2023/03/31 03:55:33;;;;;;;3.00;1.80;;;9.90;99.90;;;;;;6134975;23;20568;-68
2023/03/31 03:57:59;;;;;;;2.67;1.50;;;9.90;99.90;;;;;;6139801;23;20403;-68
2023/03/31 04:00:24;;;;;;;6.10;1.90;;;9.90;99.90;;;;;;6140338;23;20743;-69
2023/03/31 04:02:50;;;;;;;7.57;1.63;;;9.90;99.90;;;;;;6142538;23;20160;-69
2023/03/31 04:05:16;;;;;;;4.87;1.40;;;9.90;99.90;;;;;;6143835;23;20144;-69
2023/03/31 04:07:41;;;;;;;5.63;1.70;;;10.00;99.90;;;;;;6143655;23;20215;-68
2023/03/31 04:10:07;;;;;;;3.10;1.00;;;10.00;99.90;;;;;;6143227;23;20140;-70
2023/03/31 04:12:34;;;;;;;4.23;1.40;;;10.00;99.90;;;;;;6142451;23;20226;-70
2023/03/31 04:15:00;;;;;;;2.80;1.10;;;10.00;99.90;;;;;;6142010;23;20681;-70
2023/03/31 04:17:31;;;;;;;5.03;1.47;;;10.00;99.90;;;;;;6142144;23;20383;-69
2023/03/31 04:20:00;;;;;;;6.87;1.60;;;10.10;99.90;;;;;;6145028;23;20190;-72
2023/03/31 04:22:34;;;;;;;3.73;1.57;;;10.10;99.90;;;;;;6150852;23;20438;-69
2023/03/31 04:25:03;;;;;;;3.83;1.57;;;10.20;99.90;;;;;;6147211;23;20478;-71
2023/03/31 04:27:29;;;;;;;5.20;1.27;;;10.20;99.90;;;;;;6116009;23;20495;-70
2023/03/31 04:29:56;;;;;;;7.63;1.70;;;10.30;99.90;;;;;;6146642;23;20375;-71
2023/03/31 04:32:22;;;;;;;5.70;1.50;;;10.40;99.90;;;;;;6144670;23;20395;-70
2023/03/31 04:34:50;;;;;;;7.63;1.87;;;10.50;99.90;;;;;;6133756;23;20416;-69
2023/03/31 04:37:16;;;;;;;6.60;1.80;;;10.50;99.90;;;;;;6143972;23;20435;-70
2023/03/31 04:39:45;;;;;;;5.87;1.80;;;10.60;99.90;;;;;;6142798;23;20136;-71
2023/03/31 04:42:11;;;;;;;4.10;1.40;;;10.60;99.90;;;;;;6143977;23;20392;-70
2023/03/31 04:44:37;;;;;;;4.47;1.63;;;10.70;99.90;;;;;;6144045;23;20371;-71
2023/03/31 04:47:05;;;;;;;4.70;1.53;;;10.70;99.90;;;;;;6144643;23;20375;-71
2023/03/31 04:49:32;;;;;;;3.50;1.60;;;10.70;99.90;;;;;;6143428;23;20136;-70
2023/03/31 04:51:57;;;;;;;1.63;1.13;;;10.70;99.90;;;;;;6143500;23;20403;-70
2023/03/31 04:54:23;;;;;;;3.10;1.40;;;10.70;99.90;;;;;;6136005;23;20924;-69
2023/03/31 04:56:48;;;;;;;4.30;1.70;;;10.70;99.90;;;;;;6146907;23;20132;-70
2023/03/31 04:59:14;;;;;;;4.23;1.43;;;10.70;99.90;;;;;;6145023;23;20143;-70
2023/03/31 05:01:43;;;;;;;3.00;1.40;;;10.60;99.90;;;;;;6144289;23;20243;-70
2023/03/31 05:04:09;;;;;;;3.13;1.37;;;10.60;99.90;;;;;;6133572;23;20148;-70
2023/03/31 05:06:35;;;;;;;6.63;1.40;;;10.60;99.90;;;;;;6149585;23;20371;-70
2023/03/31 05:09:01;;;;;;;7.33;2.30;;;10.60;99.90;;;;;;6138517;23;20150;-69
2023/03/31 05:11:27;;;;;;;3.63;1.50;;;10.70;99.90;;;;;;6145952;23;20399;-71
2023/03/31 05:13:53;;;;;;;3.83;1.47;;;10.70;99.90;;;;;;6146256;23;20143;-70
2023/03/31 05:16:19;;;;;;;4.23;1.60;;;10.70;99.90;;;;;;6147438;23;20645;-73
2023/03/31 05:18:45;;;;;;;4.80;1.70;;;10.70;99.90;;;;;;6145099;23;20406;-71
2023/03/31 05:21:19;;;;;;;5.80;1.80;;;10.80;99.90;;;;;;6144220;23;20571;-70
2023/03/31 05:23:45;;;;;;;1.73;1.10;;;10.80;99.90;;;;;;6136056;23;20398;-72
2023/03/31 05:26:12;;;;;;;5.97;1.37;;;10.80;99.90;;;;;;6139721;23;20396;-71
2023/03/31 05:28:38;;;;;;;2.50;1.10;;;10.80;99.90;;;;;;6138335;23;20459;-72
2023/03/31 05:31:05;;;;;;;2.60;0.90;;;10.80;99.90;;;;;;6145585;23;20427;-71
2023/03/31 05:33:31;;;;;;;8.07;1.40;;;10.80;99.90;;;;;;6149987;23;20364;-72
2023/03/31 05:35:59;;;;;;;2.13;1.00;;;10.80;99.90;;;;;;6114205;23;20471;-71
2023/03/31 05:38:27;;;;;;;2.57;1.00;;;10.90;99.90;;;;;;6151506;23;20439;-73
2023/03/31 05:40:54;;;;;;;2.97;1.03;;;10.90;99.90;;;;;;6155610;23;20366;-73
2023/03/31 05:43:20;;;;;;;2.50;1.10;;;10.90;99.90;;;;;;6146955;23;20364;-74
2023/03/31 05:45:45;;;;;;;2.70;1.47;;;11.00;99.90;;;;;;6122950;23;20387;-69
2023/03/31 05:48:11;;;;;;;2.90;1.67;;;10.90;99.90;;;;;;6148524;23;20444;-72
2023/03/31 05:50:37;;;;;;;4.40;2.13;;;10.90;99.90;;;;;;6137949;23;20410;-70
2023/03/31 05:53:04;;;;;;;4.40;2.53;;;10.90;99.90;;;;;;6146866;23;20167;-72
2023/03/31 05:55:30;;;;;;;5.83;1.37;;;10.90;99.90;;;;;;6115180;23;20187;-71
2023/03/31 05:57:55;;;;;;;3.90;1.30;;;11.00;99.90;;;;;;6147691;23;20367;-70
2023/03/31 06:00:21;;;;;;;1.40;0.90;;;11.00;99.90;;;;;;6147790;23;20136;-71
2023/03/31 06:02:47;;;;;;;3.63;1.07;;;11.00;99.90;;;;;;6146328;23;20171;-74
2023/03/31 06:05:12;;;;;;;2.70;1.10;;;11.10;99.90;;;;;;6149194;23;20356;-71
2023/03/31 06:07:38;;;;;;;2.50;1.00;;;11.00;99.90;;;;;;6135516;23;20468;-71
2023/03/31 06:10:06;;;;;;;5.03;1.80;;;11.10;99.90;;;;;;6149487;23;20204;-70
2023/03/31 06:12:33;;;;;;;1.97;1.00;;;11.00;99.90;;;;;;6147411;23;20168;-71
2023/03/31 06:14:59;;;;;;;1.70;0.80;;;11.00;99.90;;;;;;6138861;23;20738;-72
2023/03/31 06:17:25;;;;;;;3.93;0.90;;;11.00;99.90;;;;;;6146545;23;20383;-72
2023/03/31 06:19:50;;;;;;;1.60;0.97;;;11.00;99.90;;;;;;6149201;23;20182;-74
2023/03/31 06:22:16;;;;;;;2.10;0.80;;;11.10;99.90;;;;;;6114357;23;20168;-72
2023/03/31 06:24:42;;;;;;;1.53;0.70;;;11.10;99.90;;;;;;6139643;23;20518;-72
2023/03/31 06:27:07;;;;;;;1.30;0.80;;;11.20;99.90;;;;;;6137870;23;20190;-73
2023/03/31 06:29:33;;;;;;;3.67;1.47;;;11.20;99.90;;;;;;6150060;23;20163;-72
2023/03/31 06:31:59;;;;;;;2.40;1.10;;;11.20;99.90;;;;;;6148210;23;20199;-73
2023/03/31 06:34:25;;;;;;;1.23;0.83;;;11.10;99.90;;;;;;6147124;23;20199;-71
2023/03/31 06:36:52;;;;;;;2.10;1.10;;;10.80;99.90;;;;;;6113238;23;20458;-71
2023/03/31 06:39:18;;;;;;;1.90;0.90;;;10.70;99.90;;;;;;6150811;23;20360;-72
2023/03/31 06:41:43;;;;;;;2.13;0.90;;;10.50;99.90;;;;;;6140666;23;20820;-72
2023/03/31 06:44:09;;;;;;;2.40;0.93;;;10.50;99.90;;;;;;6138452;23;20214;-71
2023/03/31 06:46:35;;;;;;;1.70;1.00;;;10.40;99.90;;;;;;6136279;23;20148;-73
2023/03/31 06:49:00;;;;;;;1.93;1.37;;;10.50;99.90;;;;;;6150241;23;20143;-71
2023/03/31 06:51:26;;;;;;;1.77;0.80;;;10.50;99.90;;;;;;6148353;23;20171;-72
2023/03/31 06:53:52;;;;;;;2.23;0.90;;;10.60;99.90;;;;;;6149058;23;20136;-72
2023/03/31 06:56:17;;;;;;;1.67;1.00;;;10.70;99.90;;;;;;6138922;23;20191;-72
2023/03/31 06:58:43;;;;;;;1.13;0.70;;;10.80;99.90;;;;;;6149091;23;20132;-72
2023/03/31 07:01:09;;;;;;;2.30;1.90;;;11.00;99.90;;;;;;6114898;23;20176;-73
2023/03/31 07:03:35;;;;;;;1.57;0.70;;;11.20;99.90;;;;;;6113202;23;20155;-71
2023/03/31 07:06:01;;;;;;;1.80;0.70;;;11.40;99.90;;;;;;6149081;23;20380;-74
2023/03/31 07:08:27;;;;;;;1.40;0.70;;;11.60;99.90;;;;;;6149029;23;20143;-72
2023/03/31 07:10:56;;;;;;;1.83;0.60;;;11.80;99.90;;;;;;6115851;23;20156;-72
2023/03/31 07:13:24;;;;;;;1.97;0.83;;;12.00;99.90;;;;;;6141851;23;20158;-72
2023/03/31 07:15:50;;;;;;;1.23;0.80;;;12.20;99.90;;;;;;6116753;23;20734;-71
2023/03/31 07:18:17;;;;;;;1.73;0.73;;;12.30;99.90;;;;;;6148418;23;20375;-72
2023/03/31 07:20:47;;;;;;;2.70;0.70;;;12.50;99.90;;;;;;6152098;23;20140;-71
2023/03/31 07:23:13;;;;;;;1.03;0.60;;;12.50;99.90;;;;;;6140021;23;20399;-73
2023/03/31 07:25:38;;;;;;;1.90;0.90;;;12.60;99.90;;;;;;6145511;23;20423;-72
2023/03/31 07:28:07;;;;;;;2.07;1.00;;;12.70;99.90;;;;;;6142035;23;20189;-73
2023/03/31 07:30:33;;;;;;;1.00;0.70;;;12.80;99.60;;;;;;6151126;23;20141;-73
2023/03/31 07:33:00;;;;;;;1.33;0.80;;;12.90;99.90;;;;;;6151041;23;20399;-72
2023/03/31 07:35:26;;;;;;;2.37;0.87;;;12.90;98.70;;;;;;6153094;23;20216;-74
2023/03/31 07:37:52;;;;;;;2.70;0.90;;;12.90;97.80;;;;;;6156487;23;20410;-73
2023/03/31 07:40:22;;;;;;;1.73;0.80;;;12.90;97.90;;;;;;6116773;23;20178;-71
2023/03/31 07:42:50;;;;;;;1.90;0.83;;;13.00;98.80;;;;;;6120908;23;20658;-73
2023/03/31 07:45:16;;;;;;;2.87;1.40;;;13.20;97.90;;;;;;6147539;23;20378;-73
2023/03/31 07:47:45;;;;;;;2.37;1.20;;;13.30;96.80;;;;;;6145557;23;20379;-73
2023/03/31 07:50:11;;;;;;;2.17;0.90;;;13.50;96.70;;;;;;6153152;23;20167;-73
2023/03/31 07:52:37;;;;;;;2.30;1.00;;;13.60;95.70;;;;;;6145676;23;20403;-71
2023/03/31 07:55:04;;;;;;;3.27;0.90;;;13.60;94.30;;;;;;6145837;23;20442;-72
2023/03/31 07:57:30;;;;;;;2.70;1.50;;;13.70;95.10;;;;;;6154545;23;20395;-73
2023/03/31 07:59:55;;;;;;;1.83;1.07;;;13.80;94.40;;;;;;6153035;23;20348;-72
2023/03/31 08:02:21;;;;;;;2.00;1.30;;;14.00;94.70;;;;;;6119263;23;20174;-74
2023/03/31 08:04:47;;;;;;;2.70;1.13;;;14.10;94.10;;;;;;6120119;23;20224;-73
2023/03/31 08:07:15;;;;;;;2.53;0.87;;;14.30;93.80;;;;;;6116613;23;20148;-73
2023/03/31 08:09:44;;;;;;;2.87;1.00;;;14.50;92.20;;;;;;6153188;23;20140;-73
2023/03/31 08:12:10;;;;;;;2.37;1.30;;;14.40;91.30;;;;;;6152058;23;20479;-72
2023/03/31 08:14:35;;;;;;;3.07;1.17;;;14.40;90.80;;;;;;6120167;23;20442;-73
2023/03/31 08:17:01;;;;;;;2.50;1.40;;;14.40;91.70;;;;;;6118520;23;20416;-72
2023/03/31 08:19:26;;;;;;;2.70;1.20;;;14.40;91.60;;;;;;6150750;23;20192;-73
2023/03/31 08:21:53;;;;;;;2.30;1.33;;;14.40;91.70;;;;;;6150747;23;20195;-72
2023/03/31 08:24:20;;;;;;;2.87;1.10;;;14.50;92.00;;;;;;6151289;23;20148;-73
2023/03/31 08:26:45;;;;;;;4.70;1.50;;;14.60;91.50;;;;;;6120627;23;20398;-73
2023/03/31 08:29:12;;;;;;;2.77;1.03;;;14.90;86.90;;;;;;6157053;23;20380;-73
2023/03/31 08:31:38;;;;;;;4.23;0.90;;;15.00;86.20;;;;;;6098463;23;20176;-73
2023/03/31 08:34:04;;;;;;;3.40;1.30;;;15.10;84.70;;;;;;6121796;23;20387;-73
2023/03/31 08:36:30;;;;;;;2.60;1.20;;;15.10;83.70;;;;;;6148462;23;20148;-75
2023/03/31 08:38:57;;;;;;;4.40;1.60;;;15.20;85.40;;;;;;6126569;23;20419;-76
2023/03/31 08:41:46;;;;;;;4.13;1.47;;;15.20;81.00;;;;;;6101020;23;20399;-73
2023/03/31 08:44:34;;;;;;;4.43;1.50;;;15.30;76.50;;;;;;6120284;23;20479;-74
2023/03/31 08:47:01;;;;;;;7.20;2.40;;;15.40;75.00;;;;;;6119143;23;20827;-72
2023/03/31 08:49:36;;;;;;;2.60;1.30;;;15.30;75.80;;;;;;6118739;23;20459;-73
2023/03/31 08:52:06;;;;;;;3.50;1.83;;;15.40;74.80;;;;;;6142914;23;20395;-73
2023/03/31 08:54:42;;;;;;;4.10;1.83;;;15.50;73.20;;;;;;6118847;23;20427;-74
2023/03/31 08:57:43;;;;;;;4.27;2.43;;;15.50;73.00;;;;;;6125544;23;20448;-74
2023/03/31 09:00:16;;;;;;;6.53;2.20;;;15.50;73.80;;;;;;6133139;23;20398;-72
2023/03/31 09:02:58;;;;;;;5.63;1.57;;;15.50;74.30;;;;;;6144829;23;20404;-73
2023/03/31 09:05:44;;;;;;;8.80;2.23;;;15.50;73.60;;;;;;6120677;23;20447;-72
2023/03/31 09:08:43;;;;;;;8.23;2.63;;;15.60;72.00;;;;;;6122000;23;20394;-72
2023/03/31 09:11:13;;;;;;;7.60;2.10;;;15.80;72.40;;;;;;6125935;23;20392;-72
2023/03/31 09:13:39;;;;;;;7.43;2.40;;;15.90;71.20;;;;;;6120999;23;20392;-72
2023/03/31 09:16:14;;;;;;;5.23;2.13;;;16.00;70.80;;;;;;6154537;23;20407;-74
2023/03/31 09:18:45;;;;;;;4.30;1.77;;;16.20;69.40;;;;;;6123215;23;20172;-73
2023/03/31 09:21:43;;;;;;;8.07;2.47;;;16.50;66.60;;;;;;6069206;23;20462;-73
2023/03/31 09:24:28;;;;;;;5.13;2.53;;;16.60;65.70;;;;;;6113923;23;20369;-73
2023/03/31 09:27:02;;;;;;;7.13;2.40;;;16.80;63.50;;;;;;6091929;23;20421;-73
2023/03/31 09:29:43;;;;;;;7.73;2.30;;;16.90;63.70;;;;;;6092074;23;20378;-74
2023/03/31 09:32:15;;;;;;;9.13;3.13;;;17.10;62.70;;;;;;6066118;23;20401;-75
2023/03/31 09:34:41;;;;;;;5.70;2.30;;;17.10;61.00;;;;;;6068787;23;20425;-73
2023/03/31 09:37:10;;;;;;;6.47;3.10;;;17.10;61.30;;;;;;6118563;23;20486;-73
2023/03/31 09:39:38;;;;;;;5.37;2.17;;;16.90;59.60;;;;;;6091783;23;20389;-74
2023/03/31 09:42:05;;;;;;;7.37;2.10;;;16.90;59.40;;;;;;6068324;23;20395;-74
2023/03/31 09:44:43;;;;;;;7.30;2.70;;;16.70;61.10;;;;;;6069107;23;20388;-74
2023/03/31 09:47:32;;;;;;;7.60;2.60;;;16.60;63.60;;;;;;6093866;23;20372;-72
2023/03/31 09:49:58;;;;;;;6.97;2.10;;;16.40;60.30;;;;;;6148384;23;20402;-73
2023/03/31 09:52:30;;;;;;;5.43;2.13;;;16.30;59.50;;;;;;6121462;23;20429;-73
2023/03/31 09:54:59;;;;;;;4.60;1.57;;;16.10;59.80;;;;;;6118111;23;20523;-74
2023/03/31 09:57:30;;;;;;;5.00;1.77;;;16.00;60.00;;;;;;6120754;23;20358;-74
2023/03/31 10:00:24;;;;;;;8.20;2.30;;;16.20;60.00;;;;;;6061319;23;20390;-74
2023/03/31 10:02:54;;;;;;;7.60;2.50;;;16.30;58.20;;;;;;6062976;23;20425;-74
2023/03/31 10:05:31;;;;;;;6.77;2.10;;;16.30;58.20;;;;;;6059711;23;20400;-73
2023/03/31 10:08:15;;;;;;;7.13;1.90;;;16.30;58.80;;;;;;6035993;23;20660;-74
2023/03/31 10:10:54;;;;;;;7.33;2.00;;;16.30;58.90;;;;;;6037531;23;20417;-73
2023/03/31 10:13:25;;;;;;;6.20;2.77;;;16.40;59.40;;;;;;6039440;23;20373;-73
2023/03/31 10:15:53;;;;;;;6.00;2.03;;;16.20;59.00;;;;;;6048968;23;20480;-73
2023/03/31 10:18:22;;;;;;;7.63;2.67;;;16.30;59.90;;;;;;6036610;23;20468;-74
2023/03/31 10:20:51;;;;;;;5.83;2.37;;;16.50;59.20;;;;;;6060723;23;20386;-75
2023/03/31 10:23:31;;;;;;;4.70;2.20;;;16.50;59.50;;;;;;6013258;23;20409;-72
2023/03/31 10:25:58;;;;;;;9.03;2.30;;;16.70;58.20;;;;;;6061581;23;20679;-74
2023/03/31 10:28:25;;;;;;;6.50;2.13;;;16.50;58.60;;;;;;6062565;23;20417;-74
2023/03/31 10:30:56;;;;;;;3.80;1.60;;;16.60;58.30;;;;;;6076403;23;20393;-74
2023/03/31 10:33:26;;;;;;;6.03;1.77;;;16.90;57.20;;;;;;6120875;23;20377;-74
2023/03/31 10:35:58;;;;;;;4.00;1.93;;;16.90;57.20;;;;;;6122785;23;20420;-73
2023/03/31 10:38:45;;;;;;;9.73;3.23;;;17.30;56.50;;;;;;6121288;23;20391;-74
2023/03/31 10:41:19;;;;;;;14.03;4.80;;;17.30;57.00;;;;;;6145800;23;20395;-75
2023/03/31 10:43:52;;;;;;;5.07;2.47;;;17.20;56.30;;;;;;6130957;23;20404;-73
2023/03/31 10:46:19;;;;;;;12.27;5.50;;;17.10;56.80;;;;;;6144747;23;20385;-73
2023/03/31 10:48:46;;;;;;;6.33;3.03;;;16.90;56.30;;;;;;6122776;23;20384;-74
2023/03/31 10:51:20;;;;;;;8.13;2.80;;;16.90;56.20;;;;;;6135335;23;20407;-74
2023/03/31 10:53:54;;;;;;;7.03;2.00;;;16.90;56.90;;;;;;6123174;23;20383;-73
2023/03/31 10:56:43;;;;;;;6.93;2.10;;;16.80;56.60;;;;;;6151010;23;20421;-74
2023/03/31 10:59:24;;;;;;;3.37;1.40;;;17.00;55.80;;;;;;6152299;23;20427;-74
2023/03/31 11:02:24;;;;;;;2.97;1.10;;;17.10;55.20;;;;;;6126360;23;20450;-74
2023/03/31 11:05:24;;;;;;;2.40;1.33;;;17.00;54.50;;;;;;6146898;23;20527;-75
2023/03/31 11:08:00;;;;;;;3.53;2.00;;;17.20;54.00;;;;;;6125475;23;20436;-73
2023/03/31 11:10:42;;;;;;;5.90;1.53;;;17.40;53.70;;;;;;6125459;23;20387;-74
2023/03/31 11:13:19;;;;;;;3.00;1.80;;;17.40;54.20;;;;;;6150749;23;20415;-74
2023/03/31 11:16:07;;;;;;;4.17;1.80;;;17.50;53.70;;;;;;6128292;23;20435;-74
2023/03/31 11:19:12;;;;;;;6.57;1.77;;;17.50;53.80;;;;;;6153134;23;20375;-72
2023/03/31 11:21:55;;;;;;;7.53;2.00;;;17.30;54.30;;;;;;6123751;23;20442;-74
2023/03/31 11:24:31;;;;;;;4.23;2.30;;;17.20;54.60;;;;;;6069751;23;20408;-74
2023/03/31 11:27:28;;;;;;;5.03;1.93;;;17.10;55.30;;;;;;6087055;23;20418;-74
2023/03/31 11:30:11;;;;;;;4.70;1.47;;;17.00;55.80;;;;;;6065351;23;20406;-73
2023/03/31 11:32:56;;;;;;;13.50;2.03;;;17.10;56.00;;;;;;6090776;23;20421;-73
2023/03/31 11:35:58;;;;;;;3.93;1.63;;;17.00;56.40;;;;;;6041293;23;20409;-76
2023/03/31 11:38:53;;;;;;;4.43;1.97;;;17.00;55.60;;;;;;6091061;23;20373;-74
2023/03/31 11:41:35;;;;;;;3.57;1.60;;;17.00;55.50;;;;;;6091680;23;20405;-74
2023/03/31 11:44:10;;;;;;;6.97;1.83;;;16.90;54.90;;;;;;6092054;23;20426;-74
2023/03/31 11:47:12;;;;;;;4.87;2.07;;;17.00;55.00;;;;;;6043200;23;20393;-74
2023/03/31 11:49:52;;;;;;;5.60;2.50;;;17.10;55.40;;;;;;6038720;23;20391;-74
2023/03/31 11:52:28;;;;;;;5.27;2.03;;;17.20;55.30;;;;;;6052580;23;21438;-73
2023/03/31 11:55:18;;;;;;;9.93;2.40;;;17.10;55.10;;;;;;6098181;23;20419;-74
2023/03/31 11:58:04;;;;;;;8.33;2.03;;;17.00;55.50;;;;;;6065840;23;20400;-72
2023/03/31 12:00:51;;;;;;;7.77;2.63;;;17.00;55.80;;;;;;6101196;23;20393;-74
2023/03/31 12:03:30;;;;;;;5.97;2.50;;;17.00;55.50;;;;;;6124833;23;20450;-74
2023/03/31 12:06:02;;;;;;;9.00;3.00;;;16.80;56.70;;;;;;6099350;23;20384;-75
2023/03/31 12:08:35;;;;;;;9.77;3.40;;;16.80;58.30;;;;;;6120735;23;20376;-73
2023/03/31 12:11:21;;;;;;;6.40;2.90;;;16.40;59.50;;;;;;6123636;23;20396;-74
2023/03/31 12:14:01;;;;;;;6.70;3.00;;;16.10;64.80;;;;;;6100619;23;20400;-72
2023/03/31 12:17:07;;;;;;;6.73;2.90;;;15.80;74.40;;;;;;6122948;23;20391;-72
2023/03/31 12:19:47;;;;;;;12.83;3.80;;;15.50;80.60;;;;;;6075374;23;20475;-73
2023/03/31 12:22:37;;;;;;;6.07;3.20;;;15.50;80.10;;;;;;6091124;23;20456;-74
2023/03/31 12:25:04;;;;;;;12.10;2.70;;;15.70;79.00;;;;;;6096135;23;20710;-73
2023/03/31 12:27:42;;;;;;;10.83;2.83;;;15.90;78.30;;;;;;6121384;23;20389;-73
2023/03/31 12:30:30;;;;;;;7.53;2.20;;;16.20;74.20;;;;;;6071257;23;20388;-74
2023/03/31 12:33:37;;;;;;;6.77;3.07;;;16.50;71.80;;;;;;6096569;23;20434;-74
2023/03/31 12:36:39;;;;;;;6.07;2.73;;;16.70;67.30;;;;;;5981868;24;20431;-74
2023/03/31 12:39:11;;;;;;;11.33;3.00;;;16.80;65.40;;;;;;6005821;24;20399;-74
2023/03/31 12:42:03;;;;;;;8.80;3.30;;;16.80;63.70;;;;;;6003109;24;20417;-74
2023/03/31 12:44:42;;;;;;;7.23;2.00;;;16.80;59.50;;;;;;5980219;24;20430;-74
2023/03/31 12:47:32;;;;;;;5.30;2.53;;;17.00;58.10;;;;;;6003785;23;20398;-73
2023/03/31 12:50:40;;;;;;;5.97;2.00;;;17.00;55.40;;;;;;6004118;24;20400;-74
2023/03/31 12:53:34;;;;;;;3.80;2.17;;;17.10;56.60;;;;;;5981866;24;20414;-74
2023/03/31 12:56:02;;;;;;;8.77;2.60;;;17.20;55.60;;;;;;5981304;24;20402;-74
2023/03/31 12:58:35;;;;;;;12.23;2.90;;;17.30;55.20;;;;;;5980296;24;20393;-73
2023/03/31 13:01:16;;;;;;;4.10;2.10;;;17.30;56.30;;;;;;5956104;24;20393;-72
2023/03/31 13:03:53;;;;;;;7.40;2.10;;;17.10;57.10;;;;;;6002438;24;20385;-73
2023/03/31 13:06:28;;;;;;;7.37;1.80;;;16.80;59.60;;;;;;5992069;23;20399;-73
2023/03/31 13:08:57;;;;;;;7.77;2.10;;;16.30;63.50;;;;;;6002372;24;20389;-74
2023/03/31 13:11:37;;;;;;;4.23;2.10;;;16.10;67.20;;;;;;6002072;24;20790;-74
2023/03/31 13:14:35;;;;;;;4.90;2.23;;;16.00;70.70;;;;;;6095102;23;20380;-73